Terminal Aerodrome Forecast
Issued by NWS Cleveland, OH

Home | Current Version | Previous Version | Text Only | Print | Product List | Glossary Off
Versions: 1 2 3 4 5 6 7 8 9 10 11 12 13 14 15 16

000
FTUS41 KCLE 031401 AAB
TAFTOL
TAF AMD
KTOL 031401Z 0314/0412 23015G22KT P6SM SCT025
     FM031700 24015G25KT P6SM BKN035
     FM032100 25015G25KT P6SM OVC035
     FM040600 26010KT P6SM OVC015=

USA.gov is the U.S. government's official web portal to all federal, state and local government web resources and services.